Maysora — C6RI4 — position and weather

sailwx.info

Track history (hours):
 
Tides and Currents Weather Stations Pressure Air Temp Water Temp Dewpoint Dewpoint Depression Visibility Wind Speed Wind Dir Waves Ship Positions

Maysora

Last reported at 2015-Jul-28 10:10 UTC. Time now 2015-Aug-04 05:23 UTC.
Position S 31°54' E 115°35'.

Length 195.7 m; beam 28.4 m; draft 10 m.

Type: Cargo ship. MMSI: 311042000.

Date/timePositionNaut miles runAvg speedWind from/ knotsBaromVisibWave heightAir tempDewpointWater temp
2015-Jul-28 10:10S 31°54' E 115°35'914.3
2015-Jul-28 09:34S 31°60' E 115°42'3 3.4
2015-Jul-28 08:34S 32°03' E 115°42'2 1.6
2015-Jul-28 07:31S 32°03' E 115°44'0 0.0
2015-Jul-28 06:31S 32°03' E 115°44'0 0.0
2015-Jul-28 05:31S 32°03' E 115°44'0 0.0
2015-Jul-28 04:31S 32°03' E 115°44'0 0.0
2015-Jul-28 03:31S 32°03' E 115°44'0 0.0
2015-Jul-28 02:31S 32°03' E 115°44'0 0.0
2015-Jul-28 01:31S 32°03' E 115°44'0 0.0
2015-Jul-28 00:31S 32°03' E 115°44'0 0.0
2015-Jul-27 23:31S 32°03' E 115°44'0 0.0
2015-Jul-27 22:31S 32°03' E 115°44'0 0.0
2015-Jul-27 21:31S 32°03' E 115°44'0 0.0
2015-Jul-27 20:31S 32°03' E 115°44'0 0.0
2015-Jul-27 19:31S 32°03' E 115°44'0 0.0
2015-Jul-27 18:31S 32°03' E 115°44'0 0.0
2015-Jul-27 17:31S 32°03' E 115°44'0 0.0
2015-Jul-27 16:31S 32°03' E 115°44'0 0.0
2015-Jul-27 15:28S 32°03' E 115°44'0 0.0
2015-Jul-27 14:28S 32°03' E 115°44'0 0.0
2015-Jul-27 13:31S 32°03' E 115°44'0 0.0
2015-Jul-27 12:31S 32°03' E 115°44'0 0.0
2015-Jul-27 11:31S 32°03' E 115°44'0 0.0
2015-Jul-27 10:31S 32°03' E 115°44'0 0.0
2015-Jul-27 09:31S 32°03' E 115°44'0 0.0
2015-Jul-27 08:28S 32°03' E 115°44'0 0.0
2015-Jul-27 07:31S 32°03' E 115°44'0 0.0
2015-Jul-27 06:33S 32°03' E 115°44'0 0.0
2015-Jul-27 05:30S 32°03' E 115°44'0 0.0
2015-Jul-27 04:30S 32°03' E 115°44'0 0.0
2015-Jul-27 03:30S 32°03' E 115°44'0 0.0
2015-Jul-27 02:33S 32°03' E 115°44'0 0.0
2015-Jul-27 01:30S 32°03' E 115°44'0 0.0
2015-Jul-27 00:30S 32°03' E 115°44'0 0.0
2015-Jul-26 23:33S 32°03' E 115°44'0 0.0
2015-Jul-26 22:30S 32°03' E 115°44'0 0.0
2015-Jul-26 21:33S 32°03' E 115°44'0 0.0
2015-Jul-26 20:33S 32°03' E 115°44'0 0.0
2015-Jul-26 19:33S 32°03' E 115°44'0 0.0
2015-Jul-26 18:33S 32°03' E 115°44'0 0.0
2015-Jul-26 17:33S 32°03' E 115°44'0 0.0
2015-Jul-26 16:33S 32°03' E 115°44'0 0.0
2015-Jul-26 15:30S 32°03' E 115°44'0 0.0
2015-Jul-26 14:33S 32°03' E 115°44'0 0.0
2015-Jul-26 13:30S 32°03' E 115°44'0 0.0
2015-Jul-26 12:33S 32°03' E 115°44'0 0.0
2015-Jul-26 11:33S 32°03' E 115°44'0 0.0
2015-Jul-26 10:30S 32°03' E 115°44'0 0.0
2015-Jul-26 09:33S 32°03' E 115°44'0 0.0
2015-Jul-26 08:33S 32°03' E 115°44'0 0.0
2015-Jul-26 07:30S 32°03' E 115°44'0 0.0
2015-Jul-26 06:30S 32°03' E 115°44'0 0.0
2015-Jul-26 05:33S 32°03' E 115°44'0 0.0
2015-Jul-26 04:33S 32°03' E 115°44'3 2.9
2015-Jul-26 03:33S 32°02' E 115°41'9 9.4
2015-Jul-26 02:33S 31°54' E 115°35'  
Track history (hours):
 
Tides and Currents Weather Stations Pressure Air Temp Water Temp Dewpoint Dewpoint Depression Visibility Wind Speed Wind Dir Waves Ship Positions

Maysora

Last reported at 2015-Jul-28 10:10 UTC. Time now 2015-Aug-04 05:23 UTC.
Position S 31°54' E 115°35'.

Length 195.7 m; beam 28.4 m; draft 10 m.

Type: Cargo ship. MMSI: 311042000.

Date/timePositionNaut miles runAvg speedWind from/ knotsBaromVisibWave heightAir tempDewpointWater temp
2015-Jul-28 10:10S 31°54' E 115°35'914.3
2015-Jul-28 09:34S 31°60' E 115°42'3 3.4
2015-Jul-28 08:34S 32°03' E 115°42'2 1.6
2015-Jul-28 07:31S 32°03' E 115°44'0 0.0
2015-Jul-28 06:31S 32°03' E 115°44'0 0.0
2015-Jul-28 05:31S 32°03' E 115°44'0 0.0
2015-Jul-28 04:31S 32°03' E 115°44'0 0.0
2015-Jul-28 03:31S 32°03' E 115°44'0 0.0
2015-Jul-28 02:31S 32°03' E 115°44'0 0.0
2015-Jul-28 01:31S 32°03' E 115°44'0 0.0
2015-Jul-28 00:31S 32°03' E 115°44'0 0.0
2015-Jul-27 23:31S 32°03' E 115°44'0 0.0
2015-Jul-27 22:31S 32°03' E 115°44'0 0.0
2015-Jul-27 21:31S 32°03' E 115°44'0 0.0
2015-Jul-27 20:31S 32°03' E 115°44'0 0.0
2015-Jul-27 19:31S 32°03' E 115°44'0 0.0
2015-Jul-27 18:31S 32°03' E 115°44'0 0.0
2015-Jul-27 17:31S 32°03' E 115°44'0 0.0
2015-Jul-27 16:31S 32°03' E 115°44'0 0.0
2015-Jul-27 15:28S 32°03' E 115°44'0 0.0
2015-Jul-27 14:28S 32°03' E 115°44'0 0.0
2015-Jul-27 13:31S 32°03' E 115°44'0 0.0
2015-Jul-27 12:31S 32°03' E 115°44'0 0.0
2015-Jul-27 11:31S 32°03' E 115°44'0 0.0
2015-Jul-27 10:31S 32°03' E 115°44'0 0.0
2015-Jul-27 09:31S 32°03' E 115°44'0 0.0
2015-Jul-27 08:28S 32°03' E 115°44'0 0.0
2015-Jul-27 07:31S 32°03' E 115°44'0 0.0
2015-Jul-27 06:33S 32°03' E 115°44'0 0.0
2015-Jul-27 05:30S 32°03' E 115°44'0 0.0
2015-Jul-27 04:30S 32°03' E 115°44'0 0.0
2015-Jul-27 03:30S 32°03' E 115°44'0 0.0
2015-Jul-27 02:33S 32°03' E 115°44'0 0.0
2015-Jul-27 01:30S 32°03' E 115°44'0 0.0
2015-Jul-27 00:30S 32°03' E 115°44'0 0.0
2015-Jul-26 23:33S 32°03' E 115°44'0 0.0
2015-Jul-26 22:30S 32°03' E 115°44'0 0.0
2015-Jul-26 21:33S 32°03' E 115°44'0 0.0
2015-Jul-26 20:33S 32°03' E 115°44'0 0.0
2015-Jul-26 19:33S 32°03' E 115°44'0 0.0
2015-Jul-26 18:33S 32°03' E 115°44'0 0.0
2015-Jul-26 17:33S 32°03' E 115°44'0 0.0
2015-Jul-26 16:33S 32°03' E 115°44'0 0.0
2015-Jul-26 15:30S 32°03' E 115°44'0 0.0
2015-Jul-26 14:33S 32°03' E 115°44'0 0.0
2015-Jul-26 13:30S 32°03' E 115°44'0 0.0
2015-Jul-26 12:33S 32°03' E 115°44'0 0.0
2015-Jul-26 11:33S 32°03' E 115°44'0 0.0
2015-Jul-26 10:30S 32°03' E 115°44'0 0.0
2015-Jul-26 09:33S 32°03' E 115°44'0 0.0
2015-Jul-26 08:33S 32°03' E 115°44'0 0.0
2015-Jul-26 07:30S 32°03' E 115°44'0 0.0
2015-Jul-26 06:30S 32°03' E 115°44'0 0.0
2015-Jul-26 05:33S 32°03' E 115°44'0 0.0
2015-Jul-26 04:33S 32°03' E 115°44'3 2.9
2015-Jul-26 03:33S 32°02' E 115°41'9 9.4
2015-Jul-26 02:33S 31°54' E 115°35'  

Dump ship's entire track history